Time;durP1;ratioP1;P1;durP2;ratioP2;P2;SDS_P1;SDS_P2;PMS_P1;PMS_P2;Temp;Humidity;BMP_temperature;BMP_pressure;BME280_temperature;BME280_humidity;BME280_pressure;Samples;Min_cycle;Max_cycle;Signal;HPM_P1;HPM_P2
2021/10/10 00:01:43;;;;;;;5.10;4.32;;;28.30;87.00;;;;;;5033422;28;20051;-70
2021/10/10 00:04:11;;;;;;;5.40;4.78;;;28.20;88.20;;;;;;5033038;28;20032;-70
2021/10/10 00:06:38;;;;;;;5.05;4.55;;;28.20;88.40;;;;;;5033144;28;20474;-70
2021/10/10 00:09:05;;;;;;;6.57;4.75;;;28.30;88.30;;;;;;5033543;28;20028;-70
2021/10/10 00:11:33;;;;;;;5.50;4.97;;;28.20;88.30;;;;;;5033049;28;20021;-70
2021/10/10 00:14:00;;;;;;;5.40;4.20;;;28.10;87.80;;;;;;5033200;28;20029;-70
2021/10/10 00:16:28;;;;;;;5.40;4.78;;;28.10;87.70;;;;;;5033394;28;20018;-70
2021/10/10 00:18:55;;;;;;;6.35;4.78;;;28.10;87.80;;;;;;5015165;28;20132;-70
2021/10/10 00:21:22;;;;;;;5.57;5.05;;;28.00;88.50;;;;;;5033205;28;20017;-70
2021/10/10 00:23:49;;;;;;;5.43;4.93;;;27.90;87.90;;;;;;5033192;28;20075;-70
2021/10/10 00:26:17;;;;;;;5.40;4.90;;;27.80;87.10;;;;;;5033020;28;20025;-70
2021/10/10 00:28:44;;;;;;;5.25;4.75;;;27.80;88.40;;;;;;5033184;28;20039;-70
2021/10/10 00:31:11;;;;;;;14.52;11.13;;;27.60;87.60;;;;;;5033293;28;20067;-70
2021/10/10 00:33:39;;;;;;;17.00;15.20;;;27.40;90.60;;;;;;5033122;28;20052;-70
2021/10/10 00:36:06;;;;;;;19.00;16.50;;;26.90;92.50;;;;;;5033038;28;20014;-70
2021/10/10 00:38:33;;;;;;;20.00;16.95;;;25.70;94.10;;;;;;5033100;28;20049;-70
2021/10/10 00:41:01;;;;;;;21.05;14.95;;;25.10;95.10;;;;;;5032956;28;20430;-70
2021/10/10 00:43:28;;;;;;;19.98;15.27;;;24.50;95.80;;;;;;5032977;28;20025;-70
2021/10/10 00:45:55;;;;;;;22.67;14.20;;;24.00;96.60;;;;;;5033158;28;20063;-70
2021/10/10 00:48:23;;;;;;;17.40;11.65;;;23.60;97.30;;;;;;5015311;28;20034;-70
2021/10/10 00:50:50;;;;;;;15.57;7.82;;;23.30;98.50;;;;;;5033011;28;20132;-70
2021/10/10 00:53:19;;;;;;;13.15;6.95;;;23.00;99.50;;;;;;5032656;28;20028;-70
2021/10/10 00:55:51;;;;;;;16.35;6.55;;;22.70;99.90;;;;;;5032909;28;20048;-70
2021/10/10 00:58:23;;;;;;;18.83;6.55;;;22.30;99.90;;;;;;5032935;28;20451;-70
2021/10/10 01:00:55;;;;;;;18.42;6.40;;;22.40;99.90;;;;;;5032885;28;20017;-69
2021/10/10 01:03:24;;;;;;;22.10;7.07;;;22.40;99.90;;;;;;5033104;28;20078;-70
2021/10/10 01:05:52;;;;;;;19.98;7.45;;;22.60;99.90;;;;;;5032399;28;20049;-69
2021/10/10 01:08:20;;;;;;;27.20;8.25;;;22.80;99.90;;;;;;5032473;28;20029;-69
2021/10/10 01:10:50;;;;;;;28.42;9.25;;;22.90;99.90;;;;;;5032471;28;20021;-69
2021/10/10 01:13:18;;;;;;;27.40;9.25;;;23.00;99.90;;;;;;5032418;28;20083;-69
2021/10/10 01:15:48;;;;;;;25.05;8.50;;;23.10;99.90;;;;;;5031179;28;20033;-69
2021/10/10 01:18:26;;;;;;;28.80;9.38;;;22.90;99.90;;;;;;5036157;28;20493;-69
2021/10/10 01:20:56;;;;;;;21.63;7.68;;;23.20;99.90;;;;;;5036393;28;20043;-69
2021/10/10 01:23:24;;;;;;;26.52;9.10;;;23.30;99.90;;;;;;5036354;28;20075;-70
2021/10/10 01:25:52;;;;;;;23.38;8.48;;;23.50;99.90;;;;;;5036109;28;20053;-71
2021/10/10 01:28:20;;;;;;;25.25;8.18;;;23.60;99.90;;;;;;5036254;28;20384;-70
2021/10/10 01:30:47;;;;;;;20.75;7.70;;;23.90;99.90;;;;;;5036099;28;20018;-71
2021/10/10 01:33:15;;;;;;;25.50;8.35;;;23.60;99.90;;;;;;5036101;28;20033;-71
2021/10/10 01:35:43;;;;;;;28.27;8.15;;;23.90;99.90;;;;;;5018317;28;20028;-71
2021/10/10 01:38:16;;;;;;;30.55;8.65;;;24.00;99.90;;;;;;5036119;28;20032;-71
2021/10/10 01:40:45;;;;;;;32.72;8.90;;;23.60;99.90;;;;;;5036048;28;20029;-70
2021/10/10 01:43:13;;;;;;;25.88;8.35;;;23.90;99.90;;;;;;5035867;28;20036;-70
2021/10/10 01:45:40;;;;;;;29.15;8.98;;;24.10;99.90;;;;;;5035967;28;20393;-70
2021/10/10 01:48:08;;;;;;;24.58;8.25;;;24.40;99.90;;;;;;5035856;28;20131;-71
2021/10/10 01:50:36;;;;;;;27.40;9.35;;;24.40;99.90;;;;;;5035786;28;20408;-70
2021/10/10 01:53:04;;;;;;;24.10;7.97;;;24.60;99.90;;;;;;5035544;28;20098;-70
2021/10/10 01:55:32;;;;;;;24.27;7.47;;;24.70;99.90;;;;;;5034414;28;20034;-69
2021/10/10 01:57:59;;;;;;;22.17;7.57;;;24.90;99.90;;;;;;5017808;28;20076;-70
2021/10/10 02:00:27;;;;;;;20.38;7.75;;;25.10;99.90;;;;;;5017876;28;20057;-70
2021/10/10 02:02:54;;;;;;;22.02;7.28;;;25.20;99.90;;;;;;5035575;28;20053;-70
2021/10/10 02:05:21;;;;;;;21.58;7.35;;;25.30;99.90;;;;;;5035059;28;20042;-70
2021/10/10 02:07:49;;;;;;;18.17;6.60;;;25.50;99.90;;;;;;5035551;28;20018;-71
2021/10/10 02:10:16;;;;;;;17.73;6.78;;;25.60;99.90;;;;;;5035404;28;20013;-70
2021/10/10 02:12:43;;;;;;;13.18;6.45;;;25.40;99.90;;;;;;5035249;28;20021;-70
2021/10/10 02:15:11;;;;;;;20.48;6.40;;;25.40;99.90;;;;;;5035290;28;20021;-69
2021/10/10 02:17:39;;;;;;;16.40;7.00;;;25.80;99.90;;;;;;5035241;28;20056;-70
2021/10/10 02:20:07;;;;;;;17.95;7.15;;;25.80;99.70;;;;;;5035164;28;20079;-70
2021/10/10 02:22:35;;;;;;;20.17;7.45;;;25.70;99.70;;;;;;5035462;28;20049;-69
2021/10/10 02:25:03;;;;;;;17.42;6.63;;;25.70;99.60;;;;;;5035074;28;20398;-70
2021/10/10 02:27:31;;;;;;;20.70;7.70;;;25.50;99.90;;;;;;5034579;28;20025;-69
2021/10/10 02:29:58;;;;;;;22.65;6.68;;;25.50;99.90;;;;;;5034505;28;20030;-70
2021/10/10 02:32:26;;;;;;;18.10;6.82;;;25.50;99.90;;;;;;5035170;28;20456;-70
2021/10/10 02:34:53;;;;;;;25.73;7.30;;;25.50;99.90;;;;;;5034958;28;20112;-69
2021/10/10 02:37:20;;;;;;;17.70;7.22;;;25.50;99.90;;;;;;5034949;28;20474;-68
2021/10/10 02:39:48;;;;;;;24.90;8.18;;;25.80;99.90;;;;;;5034881;28;20033;-69
2021/10/10 02:42:15;;;;;;;18.45;6.38;;;26.10;99.90;;;;;;5033395;28;20067;-70
2021/10/10 02:44:42;;;;;;;25.13;7.82;;;25.10;99.90;;;;;;5034820;28;20021;-70
2021/10/10 02:47:09;;;;;;;25.40;7.35;;;24.70;99.90;;;;;;5034804;28;20029;-69
2021/10/10 02:49:37;;;;;;;22.27;7.18;;;24.30;99.90;;;;;;5034764;28;20502;-69
2021/10/10 02:52:04;;;;;;;22.33;7.05;;;23.80;99.90;;;;;;5034736;28;20028;-70
2021/10/10 02:54:32;;;;;;;23.13;7.38;;;23.70;99.90;;;;;;5034662;28;20423;-70
2021/10/10 02:56:59;;;;;;;23.35;7.65;;;23.30;99.90;;;;;;5034583;28;20043;-69
2021/10/10 02:59:26;;;;;;;26.20;8.52;;;22.90;99.90;;;;;;5034636;28;20021;-70
2021/10/10 03:01:53;;;;;;;26.10;8.07;;;22.90;99.90;;;;;;5034474;28;20550;-70
2021/10/10 03:04:21;;;;;;;25.95;8.82;;;22.70;99.90;;;;;;5034200;28;20465;-70
2021/10/10 03:06:48;;;;;;;27.70;7.93;;;23.00;99.90;;;;;;5034433;28;20025;-70
2021/10/10 03:09:15;;;;;;;25.45;8.82;;;23.30;99.90;;;;;;5034228;28;20030;-71
2021/10/10 03:11:43;;;;;;;27.63;8.70;;;23.70;99.90;;;;;;5034263;28;20060;-70
2021/10/10 03:14:10;;;;;;;23.85;8.10;;;23.70;99.90;;;;;;5034196;28;20041;-70
2021/10/10 03:16:37;;;;;;;26.05;7.28;;;23.90;99.90;;;;;;5015833;28;20616;-70
2021/10/10 03:19:05;;;;;;;22.95;8.07;;;23.70;99.90;;;;;;5033779;28;20017;-70
2021/10/10 03:21:32;;;;;;;26.77;8.32;;;24.10;99.90;;;;;;5032788;28;20086;-70
2021/10/10 03:24:00;;;;;;;31.02;7.85;;;24.10;99.90;;;;;;5034073;28;20037;-71
2021/10/10 03:26:27;;;;;;;26.73;7.82;;;24.40;99.90;;;;;;5034023;28;20044;-70
2021/10/10 03:28:54;;;;;;;23.73;7.10;;;24.50;99.90;;;;;;5034043;28;20083;-70
2021/10/10 03:31:22;;;;;;;23.33;7.30;;;24.40;99.90;;;;;;5034010;28;20064;-70
2021/10/10 03:33:49;;;;;;;24.50;7.25;;;24.00;99.90;;;;;;5033743;28;20036;-70
2021/10/10 03:36:17;;;;;;;24.48;7.85;;;23.60;99.90;;;;;;5033867;28;20052;-70
2021/10/10 03:38:44;;;;;;;28.20;7.95;;;22.80;99.90;;;;;;5033647;28;20539;-70
2021/10/10 03:41:12;;;;;;;25.27;7.07;;;22.30;99.90;;;;;;5033546;28;20021;-70
2021/10/10 03:43:40;;;;;;;25.65;7.60;;;21.70;99.90;;;;;;5033715;28;20025;-71
2021/10/10 03:46:07;;;;;;;22.83;8.00;;;21.50;99.90;;;;;;5033617;28;20069;-70
2021/10/10 03:48:35;;;;;;;21.73;7.95;;;21.00;99.90;;;;;;5033599;28;20116;-70
2021/10/10 03:51:03;;;;;;;21.05;8.68;;;20.80;99.90;;;;;;5033543;28;20023;-71
2021/10/10 03:54:03;;;;;;;30.20;10.63;;;20.50;99.90;;;;;;5033338;28;20017;-70
2021/10/10 03:56:20;;;;;;;26.30;10.90;;;20.00;99.90;;;;;;5032852;28;20367;-71
2021/10/10 03:58:48;;;;;;;24.15;11.13;;;19.60;99.90;;;;;;5015695;28;20017;-70
2021/10/10 04:01:15;;;;;;;42.28;18.25;;;19.40;99.90;;;;;;5033279;28;20028;-70
2021/10/10 04:03:42;;;;;;;35.08;18.08;;;19.00;99.90;;;;;;5033176;28;20036;-71
2021/10/10 04:06:10;;;;;;;35.13;17.85;;;18.70;99.90;;;;;;5033172;28;20073;-71
2021/10/10 04:08:43;;;;;;;35.10;17.45;;;18.70;99.90;;;;;;5033135;28;20022;-71
2021/10/10 04:11:11;;;;;;;35.05;16.42;;;18.30;99.90;;;;;;5033113;28;20024;-71
2021/10/10 04:13:39;;;;;;;36.65;16.67;;;18.10;99.90;;;;;;5032913;28;20033;-71
2021/10/10 04:16:06;;;;;;;27.30;17.02;;;18.00;99.90;;;;;;5033024;28;20029;-70
2021/10/10 04:18:36;;;;;;;28.67;15.80;;;18.00;99.90;;;;;;5032982;28;20220;-70
2021/10/10 04:21:04;;;;;;;31.52;16.20;;;17.90;99.90;;;;;;5015126;28;20102;-72
2021/10/10 04:23:32;;;;;;;35.00;17.15;;;18.10;99.90;;;;;;5014998;28;20486;-70
2021/10/10 04:26:00;;;;;;;30.88;17.00;;;17.90;99.90;;;;;;5015104;28;20120;-71
2021/10/10 04:28:27;;;;;;;32.85;16.98;;;17.70;99.90;;;;;;5032800;28;20128;-70
2021/10/10 04:30:55;;;;;;;39.20;18.70;;;17.90;99.90;;;;;;5032799;28;20104;-70
2021/10/10 04:33:22;;;;;;;33.20;17.42;;;18.00;99.90;;;;;;5015226;28;20047;-71
2021/10/10 04:35:49;;;;;;;31.48;18.40;;;18.00;99.90;;;;;;5014940;28;20075;-70
2021/10/10 04:38:17;;;;;;;33.90;18.42;;;17.90;99.90;;;;;;5032656;28;20045;-70
2021/10/10 04:40:45;;;;;;;28.20;17.17;;;17.70;99.90;;;;;;5032762;28;20083;-70
2021/10/10 04:43:12;;;;;;;35.65;17.52;;;17.60;99.90;;;;;;5032621;28;20040;-69
2021/10/10 04:45:40;;;;;;;28.35;16.33;;;17.50;99.90;;;;;;5032569;28;20041;-70
2021/10/10 04:48:07;;;;;;;39.35;18.05;;;17.40;99.90;;;;;;5032605;28;20053;-70
2021/10/10 04:50:35;;;;;;;31.17;17.42;;;17.60;99.90;;;;;;5014417;28;20035;-71
2021/10/10 04:53:02;;;;;;;31.77;16.30;;;17.50;99.90;;;;;;5032218;28;20104;-71
2021/10/10 04:55:29;;;;;;;30.42;16.95;;;17.70;99.90;;;;;;5032568;28;20052;-70
2021/10/10 04:57:57;;;;;;;30.75;15.38;;;17.90;99.90;;;;;;5032578;28;20053;-70
2021/10/10 05:00:24;;;;;;;31.67;16.77;;;18.00;99.90;;;;;;5032427;28;20017;-70
2021/10/10 05:02:53;;;;;;;26.60;15.55;;;18.00;99.90;;;;;;5014676;28;20026;-70
2021/10/10 05:05:21;;;;;;;35.38;15.93;;;18.00;99.90;;;;;;5032143;28;20525;-70
2021/10/10 05:07:48;;;;;;;21.75;15.20;;;17.90;99.90;;;;;;5014701;28;20022;-71
2021/10/10 05:10:15;;;;;;;35.28;15.50;;;17.90;99.90;;;;;;5032263;28;20070;-71
2021/10/10 05:12:43;;;;;;;27.15;15.00;;;18.00;99.90;;;;;;5032447;28;20021;-71
2021/10/10 05:15:10;;;;;;;32.72;15.23;;;18.10;99.90;;;;;;5032275;28;20068;-72
2021/10/10 05:17:38;;;;;;;30.30;14.70;;;18.10;99.90;;;;;;5032453;28;20037;-72
2021/10/10 05:20:05;;;;;;;25.85;14.63;;;18.10;99.90;;;;;;5032407;28;20018;-72
2021/10/10 05:22:33;;;;;;;24.42;14.80;;;18.20;99.90;;;;;;5032431;28;20029;-72
2021/10/10 05:25:01;;;;;;;26.50;15.02;;;18.20;99.90;;;;;;5032363;28;20029;-72
2021/10/10 05:27:28;;;;;;;26.00;14.90;;;18.30;99.90;;;;;;5032378;28;20417;-72
2021/10/10 05:29:55;;;;;;;31.88;15.45;;;18.40;99.90;;;;;;5032282;28;20032;-72
2021/10/10 05:32:23;;;;;;;31.50;13.80;;;18.40;99.90;;;;;;5032332;28;20118;-71
2021/10/10 05:34:50;;;;;;;25.58;14.75;;;18.30;99.90;;;;;;5032188;28;20024;-72
2021/10/10 05:37:18;;;;;;;21.92;14.05;;;18.30;99.90;;;;;;5014532;28;20132;-72
2021/10/10 05:39:46;;;;;;;21.40;13.18;;;18.20;99.90;;;;;;5032191;28;20014;-72
2021/10/10 05:42:13;;;;;;;23.02;13.77;;;18.00;99.90;;;;;;5032198;28;20030;-71
2021/10/10 05:44:41;;;;;;;23.95;13.73;;;18.10;99.90;;;;;;5014314;28;20033;-72
2021/10/10 05:47:08;;;;;;;25.50;12.18;;;18.10;99.90;;;;;;5032265;28;20044;-72
2021/10/10 05:49:36;;;;;;;22.33;11.65;;;17.90;99.90;;;;;;5032043;28;20036;-72
2021/10/10 05:52:05;;;;;;;22.65;12.73;;;17.90;99.90;;;;;;5032226;28;20052;-71
2021/10/10 05:54:35;;;;;;;24.20;12.80;;;17.70;99.90;;;;;;5031940;28;20052;-71
2021/10/10 05:57:09;;;;;;;24.98;12.25;;;17.60;99.90;;;;;;5032097;28;20036;-71
2021/10/10 05:59:38;;;;;;;22.02;13.68;;;17.70;99.90;;;;;;5014267;28;20026;-71
2021/10/10 06:02:05;;;;;;;24.67;13.27;;;17.60;99.90;;;;;;5032126;28;20105;-71
2021/10/10 06:04:32;;;;;;;25.42;13.45;;;17.50;99.90;;;;;;5035283;28;20144;-72
2021/10/10 06:07:00;;;;;;;18.73;13.18;;;17.60;99.90;;;;;;5035377;28;20032;-74
2021/10/10 06:09:27;;;;;;;27.23;14.02;;;17.50;99.90;;;;;;5035338;28;20045;-74
2021/10/10 06:11:55;;;;;;;22.38;12.23;;;17.40;99.90;;;;;;5035207;28;20032;-73
2021/10/10 06:14:23;;;;;;;26.55;13.68;;;17.40;99.90;;;;;;5017387;28;20040;-73
2021/10/10 06:16:50;;;;;;;29.48;13.65;;;17.40;99.90;;;;;;5035248;28;20028;-72
2021/10/10 06:19:17;;;;;;;30.38;14.63;;;17.40;99.90;;;;;;5035111;28;20131;-72
2021/10/10 06:21:45;;;;;;;23.17;14.25;;;17.40;99.90;;;;;;5035234;28;20584;-74
2021/10/10 06:24:12;;;;;;;25.08;14.18;;;17.40;99.90;;;;;;5017230;28;20035;-73
2021/10/10 06:26:39;;;;;;;23.02;13.27;;;17.30;99.90;;;;;;5017145;28;20041;-72
2021/10/10 06:29:07;;;;;;;19.10;14.02;;;17.30;99.90;;;;;;5035028;28;20541;-72
2021/10/10 06:31:34;;;;;;;25.20;13.50;;;17.20;99.90;;;;;;5034947;28;20021;-75
2021/10/10 06:34:01;;;;;;;20.00;13.52;;;17.20;99.90;;;;;;5017240;28;20029;-73
2021/10/10 06:36:28;;;;;;;23.00;12.90;;;17.10;99.90;;;;;;5035026;28;20021;-74
2021/10/10 06:38:56;;;;;;;23.33;14.07;;;17.10;99.90;;;;;;5034964;28;20014;-75
2021/10/10 06:41:24;;;;;;;18.45;12.85;;;17.00;99.90;;;;;;5034748;28;20538;-74
2021/10/10 06:43:51;;;;;;;20.38;13.65;;;16.70;99.90;;;;;;5017082;28;20033;-74
2021/10/10 06:46:19;;;;;;;22.30;14.45;;;16.90;99.90;;;;;;5034725;28;20071;-75
2021/10/10 06:48:46;;;;;;;21.95;14.70;;;16.90;99.90;;;;;;5034867;28;20040;-75
2021/10/10 06:51:13;;;;;;;18.08;14.27;;;16.90;99.90;;;;;;5034667;28;20394;-75
2021/10/10 06:53:41;;;;;;;18.15;13.90;;;17.00;99.90;;;;;;5034518;28;20493;-75
2021/10/10 06:56:08;;;;;;;23.38;13.43;;;17.00;99.90;;;;;;5016631;28;20394;-74
2021/10/10 06:58:35;;;;;;;20.27;14.40;;;17.00;99.90;;;;;;5034757;28;20057;-75
2021/10/10 07:01:03;;;;;;;21.83;14.05;;;17.00;99.90;;;;;;5034466;28;20036;-74
2021/10/10 07:03:30;;;;;;;18.48;13.57;;;17.00;99.90;;;;;;5016690;28;20064;-75
2021/10/10 07:05:57;;;;;;;22.92;13.85;;;16.80;99.90;;;;;;5034274;28;20045;-74
2021/10/10 07:08:25;;;;;;;20.85;13.75;;;17.20;99.90;;;;;;5034347;28;20474;-76
2021/10/10 07:10:52;;;;;;;24.05;13.32;;;17.20;99.90;;;;;;5016494;28;20022;-75
2021/10/10 07:13:19;;;;;;;14.80;13.02;;;17.10;99.90;;;;;;5016372;28;20032;-76
2021/10/10 07:15:47;;;;;;;20.83;12.45;;;17.10;99.90;;;;;;5033584;28;20024;-77
2021/10/10 07:18:19;;;;;;;26.20;13.57;;;17.00;99.90;;;;;;5016328;28;20076;-75
2021/10/10 07:21:17;;;;;;;21.05;12.85;;;17.00;99.90;;;;;;5034200;28;20024;-74
2021/10/10 07:26:12;;;;;;;23.88;14.05;;;16.90;99.90;;;;;;5034470;28;20104;-74
2021/10/10 07:28:39;;;;;;;31.13;13.98;;;16.90;99.90;;;;;;5033953;28;20417;-74
2021/10/10 07:31:06;;;;;;;20.70;13.20;;;16.90;99.90;;;;;;5033893;28;20056;-73
2021/10/10 07:33:34;;;;;;;20.38;12.65;;;16.90;99.90;;;;;;5033779;28;20021;-74
2021/10/10 07:36:01;;;;;;;23.83;13.57;;;16.90;99.90;;;;;;5015955;28;20032;-74
2021/10/10 07:38:29;;;;;;;23.40;12.80;;;16.90;99.90;;;;;;5033879;28;20088;-73
2021/10/10 07:40:56;;;;;;;21.52;12.95;;;16.90;99.90;;;;;;5033588;28;20049;-73
2021/10/10 07:43:24;;;;;;;22.70;13.13;;;16.70;99.90;;;;;;5033695;28;20393;-74
2021/10/10 07:45:52;;;;;;;24.48;12.77;;;16.70;99.90;;;;;;5015983;28;20025;-73
2021/10/10 07:48:19;;;;;;;22.92;12.95;;;16.80;99.90;;;;;;5033552;28;20025;-73
2021/10/10 07:50:47;;;;;;;25.48;12.82;;;16.80;99.90;;;;;;5033456;28;20364;-78
2021/10/10 07:53:15;;;;;;;20.42;12.63;;;16.80;99.90;;;;;;5033480;28;20040;-77
2021/10/10 07:55:42;;;;;;;22.25;12.25;;;16.80;99.90;;;;;;5015601;28;20566;-77
2021/10/10 07:58:10;;;;;;;19.58;11.40;;;16.90;99.90;;;;;;5015891;28;20117;-76
2021/10/10 08:00:37;;;;;;;29.90;13.23;;;16.80;99.90;;;;;;5015603;28;20029;-77
2021/10/10 08:03:04;;;;;;;23.38;12.60;;;16.80;99.90;;;;;;5033270;28;20017;-76
2021/10/10 08:05:43;;;;;;;21.08;13.30;;;16.80;99.90;;;;;;5015677;28;20060;-76
2021/10/10 08:08:11;;;;;;;23.73;12.88;;;16.80;99.90;;;;;;5015579;28;20017;-75
2021/10/10 08:10:39;;;;;;;22.08;12.57;;;16.90;99.90;;;;;;5015404;28;20025;-77
2021/10/10 08:13:07;;;;;;;21.40;13.35;;;16.80;99.90;;;;;;5033043;28;20096;-75
2021/10/10 08:15:35;;;;;;;21.33;12.90;;;16.80;99.90;;;;;;5033126;28;20104;-75
2021/10/10 08:18:03;;;;;;;19.40;13.00;;;16.70;99.90;;;;;;5015411;28;20036;-75
2021/10/10 08:20:30;;;;;;;18.17;12.65;;;16.70;99.90;;;;;;5032964;28;20430;-75
2021/10/10 08:22:58;;;;;;;24.75;12.45;;;16.70;99.90;;;;;;5032916;28;20018;-75
2021/10/10 08:25:25;;;;;;;23.55;12.85;;;16.70;99.90;;;;;;5014714;28;20025;-75
2021/10/10 08:27:53;;;;;;;19.63;12.98;;;16.60;99.90;;;;;;5032528;28;20056;-76
2021/10/10 08:30:20;;;;;;;21.70;12.48;;;16.60;99.90;;;;;;5015097;28;20116;-77
2021/10/10 08:32:48;;;;;;;22.25;13.20;;;16.50;99.90;;;;;;5015076;28;20141;-76
2021/10/10 08:35:16;;;;;;;20.35;13.82;;;16.60;99.90;;;;;;5015033;28;20381;-77
2021/10/10 08:37:43;;;;;;;22.70;13.43;;;16.50;99.90;;;;;;5032808;28;20018;-77
2021/10/10 08:40:15;;;;;;;19.88;12.27;;;16.60;99.90;;;;;;5032783;28;20017;-76
2021/10/10 08:42:52;;;;;;;17.45;11.90;;;16.50;99.90;;;;;;5014979;28;20033;-77
2021/10/10 08:45:29;;;;;;;15.60;12.00;;;16.50;99.90;;;;;;5015040;28;20034;-77
2021/10/10 08:47:56;;;;;;;17.27;12.80;;;16.60;99.90;;;;;;5032987;28;20030;-77
2021/10/10 08:50:29;;;;;;;19.50;13.18;;;16.60;99.90;;;;;;5014942;28;20029;-78
2021/10/10 08:53:00;;;;;;;18.08;13.23;;;16.60;99.90;;;;;;5014771;28;20033;-75
2021/10/10 08:55:30;;;;;;;23.45;12.90;;;16.60;99.90;;;;;;5015021;28;20029;-75
2021/10/10 08:57:58;;;;;;;18.45;12.50;;;16.60;99.90;;;;;;5032651;28;20024;-74
2021/10/10 09:00:38;;;;;;;19.27;12.88;;;16.60;99.90;;;;;;5032642;28;20542;-74
2021/10/10 09:03:12;;;;;;;17.75;12.50;;;16.40;99.90;;;;;;5014952;28;20024;-74
2021/10/10 09:05:40;;;;;;;15.88;13.18;;;16.40;99.90;;;;;;5032304;28;20060;-74
2021/10/10 09:08:07;;;;;;;15.95;13.32;;;16.30;99.90;;;;;;5032515;28;20021;-74
2021/10/10 09:10:35;;;;;;;18.88;14.25;;;16.40;99.90;;;;;;5032493;28;20049;-74
2021/10/10 09:13:15;;;;;;;15.90;13.52;;;16.40;99.90;;;;;;5032345;28;20489;-74
2021/10/10 09:15:47;;;;;;;13.93;11.77;;;16.40;99.90;;;;;;5032412;28;20025;-74
2021/10/10 09:18:14;;;;;;;13.30;12.02;;;16.40;99.90;;;;;;5014716;28;20026;-74
2021/10/10 09:20:48;;;;;;;14.43;12.55;;;16.30;99.90;;;;;;5014748;28;20053;-75
2021/10/10 09:23:21;;;;;;;13.93;12.35;;;16.40;99.90;;;;;;5014766;28;20493;-74
2021/10/10 09:25:57;;;;;;;13.20;11.88;;;16.30;99.90;;;;;;5032681;28;20072;-73
2021/10/10 09:28:27;;;;;;;15.55;12.82;;;16.30;99.90;;;;;;5032190;28;20022;-72
2021/10/10 09:30:57;;;;;;;16.27;12.10;;;16.30;99.90;;;;;;5032292;28;20024;-73
2021/10/10 09:33:51;;;;;;;12.18;10.93;;;16.30;99.90;;;;;;5032108;28;20033;-74
2021/10/10 09:36:27;;;;;;;12.13;10.90;;;16.30;99.90;;;;;;5032275;28;20028;-75
2021/10/10 09:39:06;;;;;;;12.57;11.32;;;16.20;99.90;;;;;;5035393;28;20474;-73
2021/10/10 09:46:44;;;;;;;11.50;10.68;;;16.20;99.90;;;;;;5035912;28;20494;-73
2021/10/10 09:49:26;;;;;;;11.57;10.80;;;16.30;99.90;;;;;;5018119;28;20461;-73
2021/10/10 09:52:17;;;;;;;11.45;10.48;;;16.20;99.90;;;;;;5035791;28;20048;-74
2021/10/10 09:54:54;;;;;;;11.20;10.40;;;16.20;99.90;;;;;;5017375;28;20057;-74
2021/10/10 09:57:23;;;;;;;12.93;11.60;;;16.30;99.90;;;;;;5017990;28;20102;-74
2021/10/10 09:59:53;;;;;;;11.93;10.98;;;16.20;99.90;;;;;;5017891;28;20029;-74
2021/10/10 10:02:41;;;;;;;12.35;11.35;;;16.30;99.90;;;;;;5017776;28;20026;-74
2021/10/10 10:05:09;;;;;;;12.25;11.15;;;16.30;99.90;;;;;;5035295;28;20048;-74
2021/10/10 10:07:37;;;;;;;12.50;11.50;;;16.30;99.90;;;;;;5035596;28;20117;-75
2021/10/10 10:10:05;;;;;;;12.25;11.07;;;16.30;99.90;;;;;;5017696;28;20026;-74
2021/10/10 10:12:32;;;;;;;12.65;11.48;;;16.30;99.90;;;;;;5035340;28;20397;-74
2021/10/10 10:15:00;;;;;;;13.18;11.70;;;16.40;99.90;;;;;;5035293;28;20156;-74
2021/10/10 10:17:28;;;;;;;18.42;12.30;;;16.40;99.90;;;;;;5017484;28;20393;-73
2021/10/10 10:19:59;;;;;;;14.57;11.88;;;16.40;99.90;;;;;;5017540;28;20052;-74
2021/10/10 10:22:30;;;;;;;15.13;12.30;;;16.50;99.90;;;;;;5017689;28;20033;-74
2021/10/10 10:24:59;;;;;;;12.98;11.98;;;16.50;99.90;;;;;;5035282;28;20509;-74
2021/10/10 10:27:27;;;;;;;13.82;11.32;;;16.50;99.90;;;;;;5035165;28;20128;-74
2021/10/10 10:29:57;;;;;;;14.85;11.50;;;16.50;99.90;;;;;;5017447;28;20028;-74
2021/10/10 10:32:28;;;;;;;12.35;10.55;;;16.40;99.90;;;;;;5035139;28;20052;-75
2021/10/10 10:35:02;;;;;;;13.73;11.35;;;16.40;99.90;;;;;;5017298;28;20441;-73
2021/10/10 10:37:44;;;;;;;13.02;10.93;;;16.30;99.90;;;;;;5034889;28;20045;-74
2021/10/10 10:40:17;;;;;;;12.82;11.07;;;16.40;99.90;;;;;;5017036;28;20106;-74
2021/10/10 10:42:46;;;;;;;15.43;11.10;;;16.50;99.90;;;;;;5034822;28;20102;-74
2021/10/10 10:45:29;;;;;;;16.80;11.38;;;16.50;99.90;;;;;;5017059;28;20091;-74
2021/10/10 10:47:59;;;;;;;13.55;11.15;;;16.30;99.90;;;;;;5017358;28;20029;-74
2021/10/10 10:50:43;;;;;;;13.35;11.70;;;16.30;99.90;;;;;;5033695;28;20083;-73
2021/10/10 10:53:13;;;;;;;16.73;11.50;;;16.30;99.90;;;;;;5034679;28;20395;-74
2021/10/10 10:55:42;;;;;;;13.10;11.70;;;16.20;99.90;;;;;;5034619;28;20014;-74
2021/10/10 10:58:16;;;;;;;12.52;11.32;;;16.20;99.90;;;;;;5034550;28;20543;-74
2021/10/10 11:00:51;;;;;;;14.77;11.38;;;16.20;99.90;;;;;;5034591;28;20493;-73
2021/10/10 11:03:24;;;;;;;15.15;11.35;;;16.10;99.90;;;;;;5034506;28;20021;-74
2021/10/10 11:06:07;;;;;;;20.08;12.63;;;16.20;99.90;;;;;;5034169;28;20049;-74
2021/10/10 11:08:40;;;;;;;13.07;11.68;;;16.10;99.90;;;;;;5034378;28;20041;-74
2021/10/10 11:11:15;;;;;;;12.45;11.40;;;16.20;99.90;;;;;;5034228;28;20024;-74
2021/10/10 11:14:00;;;;;;;12.82;11.75;;;16.10;99.90;;;;;;5016496;28;20128;-74
2021/10/10 11:16:31;;;;;;;13.32;12.00;;;16.10;99.90;;;;;;5034178;28;20151;-74
2021/10/10 11:19:06;;;;;;;13.20;12.10;;;16.20;99.90;;;;;;5016369;28;20017;-74
2021/10/10 11:21:35;;;;;;;13.23;11.63;;;16.20;99.90;;;;;;5016678;28;20071;-75
2021/10/10 11:24:05;;;;;;;12.40;11.25;;;16.20;99.90;;;;;;5033945;28;20056;-74
2021/10/10 11:26:37;;;;;;;14.80;11.60;;;16.10;99.90;;;;;;5033972;28;20060;-74
2021/10/10 11:29:11;;;;;;;12.75;11.52;;;16.10;99.90;;;;;;5016192;28;20061;-75
2021/10/10 11:31:40;;;;;;;12.63;11.50;;;16.10;99.90;;;;;;5033942;28;20470;-75
2021/10/10 11:34:11;;;;;;;13.70;12.25;;;16.10;99.90;;;;;;5033787;28;20028;-75
2021/10/10 11:36:47;;;;;;;12.32;11.10;;;16.10;99.90;;;;;;5033795;28;20482;-75
2021/10/10 11:39:18;;;;;;;13.98;11.95;;;16.10;99.90;;;;;;5015905;28;20053;-74
2021/10/10 11:41:51;;;;;;;12.90;11.80;;;16.10;99.90;;;;;;5016015;28;20026;-75
2021/10/10 11:44:22;;;;;;;11.88;10.60;;;16.00;99.90;;;;;;5015930;28;20494;-73
2021/10/10 11:46:53;;;;;;;11.98;10.98;;;15.90;99.90;;;;;;5015871;28;20478;-74
2021/10/10 11:49:37;;;;;;;12.60;11.50;;;15.90;99.90;;;;;;5033824;28;20541;-74
2021/10/10 11:52:31;;;;;;;11.85;10.82;;;15.90;99.90;;;;;;5015841;28;20029;-75
2021/10/10 11:55:22;;;;;;;12.00;10.80;;;15.90;99.90;;;;;;5015700;28;20036;-75
2021/10/10 11:57:58;;;;;;;12.48;11.20;;;16.00;99.90;;;;;;5015773;28;20528;-74
2021/10/10 12:00:34;;;;;;;12.30;11.20;;;16.00;99.90;;;;;;5015857;28;20025;-74
2021/10/10 12:03:10;;;;;;;11.85;10.77;;;16.00;99.90;;;;;;5033355;28;20105;-74
2021/10/10 12:05:42;;;;;;;11.15;10.40;;;15.80;99.90;;;;;;5033146;28;20517;-74
2021/10/10 12:08:25;;;;;;;11.32;10.63;;;15.80;99.90;;;;;;5033235;28;20056;-74
2021/10/10 12:10:53;;;;;;;12.88;11.75;;;15.70;99.90;;;;;;5015497;28;20028;-75
2021/10/10 12:13:22;;;;;;;12.38;11.57;;;15.80;99.90;;;;;;5015402;28;20021;-75
2021/10/10 12:16:03;;;;;;;12.52;11.52;;;15.80;99.90;;;;;;5033160;28;20383;-75
2021/10/10 12:18:32;;;;;;;11.82;10.73;;;15.80;99.90;;;;;;5033032;28;20444;-76
2021/10/10 12:21:38;;;;;;;11.93;11.13;;;15.70;99.90;;;;;;5033114;28;20024;-76
2021/10/10 12:24:11;;;;;;;12.90;11.85;;;15.80;99.90;;;;;;4972218;28;20031;-75
2021/10/10 12:26:48;;;;;;;13.70;12.20;;;15.80;99.90;;;;;;4972297;28;20451;-75
2021/10/10 12:29:26;;;;;;;13.40;12.23;;;15.80;99.90;;;;;;5008472;28;20113;-75
2021/10/10 12:31:56;;;;;;;12.73;11.90;;;15.80;99.90;;;;;;5033015;28;20083;-75
2021/10/10 12:34:33;;;;;;;11.98;11.27;;;15.70;99.90;;;;;;5015070;28;20032;-75
2021/10/10 12:37:00;;;;;;;12.93;11.82;;;15.70;99.90;;;;;;5015105;28;20451;-75
2021/10/10 12:39:44;;;;;;;12.88;11.68;;;15.70;99.90;;;;;;5032909;28;20025;-76
2021/10/10 12:42:12;;;;;;;11.93;11.00;;;15.70;99.90;;;;;;5015170;28;20044;-75
2021/10/10 12:44:39;;;;;;;12.23;11.23;;;15.70;99.90;;;;;;5032802;28;20108;-76
2021/10/10 12:47:06;;;;;;;12.20;11.10;;;15.60;99.90;;;;;;5032737;28;20029;-75
2021/10/10 12:49:38;;;;;;;12.63;11.60;;;15.70;99.90;;;;;;5032696;28;20021;-76
2021/10/10 12:52:08;;;;;;;11.77;10.73;;;15.60;99.90;;;;;;5032671;28;20543;-76